sensor_id;sensor_type;location;lat;lon;timestamp;pressure;altitude;pressure_sealevel;temperature;humidity
33949;BME280;20229;49.856;19.030;2023-11-19T00:02:54;102138.91;;;0.88;98.83
33949;BME280;20229;49.856;19.030;2023-11-19T00:08:09;102132.59;;;0.75;99.01
33949;BME280;20229;49.856;19.030;2023-11-19T00:13:23;102138.78;;;0.66;98.91
33949;BME280;20229;49.856;19.030;2023-11-19T00:18:37;102132.46;;;0.57;99.67
33949;BME280;20229;49.856;19.030;2023-11-19T00:23:52;102128.85;;;0.55;99.83
33949;BME280;20229;49.856;19.030;2023-11-19T00:29:06;102119.88;;;0.50;100.00
33949;BME280;20229;49.856;19.030;2023-11-19T00:34:20;102116.26;;;0.47;100.00
33949;BME280;20229;49.856;19.030;2023-11-19T00:39:36;102114.47;;;0.46;100.00
33949;BME280;20229;49.856;19.030;2023-11-19T00:44:51;102118.95;;;0.46;100.00
33949;BME280;20229;49.856;19.030;2023-11-19T00:50:06;102117.99;;;0.42;100.00
33949;BME280;20229;49.856;19.030;2023-11-19T00:55:23;102067.69;;;0.18;100.00
33949;BME280;20229;49.856;19.030;2023-11-19T01:00:38;102091.13;;;0.39;100.00
33949;BME280;20229;49.856;19.030;2023-11-19T01:05:53;102099.16;;;0.38;100.00
33949;BME280;20229;49.856;19.030;2023-11-19T01:11:08;102106.30;;;0.33;100.00
33949;BME280;20229;49.856;19.030;2023-11-19T01:16:22;102108.96;;;0.30;100.00
33949;BME280;20229;49.856;19.030;2023-11-19T01:21:38;102108.93;;;0.25;100.00
33949;BME280;20229;49.856;19.030;2023-11-19T01:26:52;102100.81;;;0.20;100.00
33949;BME280;20229;49.856;19.030;2023-11-19T01:32:07;102096.30;;;0.15;100.00
33949;BME280;20229;49.856;19.030;2023-11-19T01:37:21;102071.18;;;0.10;100.00
33949;BME280;20229;49.856;19.030;2023-11-19T01:42:38;102059.49;;;0.03;100.00
33949;BME280;20229;49.856;19.030;2023-11-19T01:47:52;102059.46;;;-0.02;100.00
33949;BME280;20229;49.856;19.030;2023-11-19T01:53:07;102035.27;;;-0.06;100.00
33949;BME280;20229;49.856;19.030;2023-11-19T01:58:21;102018.23;;;-0.08;100.00
33949;BME280;20229;49.856;19.030;2023-11-19T02:03:37;102006.57;;;-0.12;100.00
33949;BME280;20229;49.856;19.030;2023-11-19T02:08:51;102012.84;;;-0.11;100.00
33949;BME280;20229;49.856;19.030;2023-11-19T02:14:05;101977.02;;;-0.16;100.00
33949;BME280;20229;49.856;19.030;2023-11-19T02:19:20;101970.76;;;-0.17;100.00
33949;BME280;20229;49.856;19.030;2023-11-19T02:24:34;101952.84;;;-0.19;100.00
33949;BME280;20229;49.856;19.030;2023-11-19T02:29:48;101934.06;;;-0.21;100.00
33949;BME280;20229;49.856;19.030;2023-11-19T02:35:04;101917.01;;;-0.26;100.00
33949;BME280;20229;49.856;19.030;2023-11-19T02:40:19;101919.66;;;-0.29;100.00
33949;BME280;20229;49.856;19.030;2023-11-19T02:45:33;101908.02;;;-0.34;100.00
33949;BME280;20229;49.856;19.030;2023-11-19T02:50:47;101893.68;;;-0.38;100.00
33949;BME280;20229;49.856;19.030;2023-11-19T02:56:04;101880.22;;;-0.44;100.00
33949;BME280;20229;49.856;19.030;2023-11-19T03:01:57;101887.29;;;-0.54;100.00
33949;BME280;20229;49.856;19.030;2023-11-19T03:07:14;101851.52;;;-0.54;100.00
33949;BME280;20229;49.856;19.030;2023-11-19T03:12:28;101880.10;;;-0.58;100.00
33949;BME280;20229;49.856;19.030;2023-11-19T03:17:42;101860.46;;;-0.55;100.00
33949;BME280;20229;49.856;19.030;2023-11-19T03:22:56;101853.31;;;-0.56;100.00
33949;BME280;20229;49.856;19.030;2023-11-19T03:28:11;101832.77;;;-0.53;100.00
33949;BME280;20229;49.856;19.030;2023-11-19T03:33:25;101823.81;;;-0.56;100.00
33949;BME280;20229;49.856;19.030;2023-11-19T03:38:41;101824.70;;;-0.54;100.00
33949;BME280;20229;49.856;19.030;2023-11-19T03:43:56;101812.15;;;-0.57;100.00
33949;BME280;20229;49.856;19.030;2023-11-19T03:49:11;101810.40;;;-0.56;100.00
33949;BME280;20229;49.856;19.030;2023-11-19T03:54:26;101782.67;;;-0.54;100.00
33949;BME280;20229;49.856;19.030;2023-11-19T03:59:41;101781.80;;;-0.51;100.00
33949;BME280;20229;49.856;19.030;2023-11-19T04:04:55;101763.02;;;-0.50;100.00
33949;BME280;20229;49.856;19.030;2023-11-19T04:10:10;101754.13;;;-0.45;100.00
33949;BME280;20229;49.856;19.030;2023-11-19T04:15:26;101749.63;;;-0.46;100.00
33949;BME280;20229;49.856;19.030;2023-11-19T04:20:40;101733.59;;;-0.42;100.00
33949;BME280;20229;49.856;19.030;2023-11-19T04:25:55;101752.34;;;-0.43;100.00
33949;BME280;20229;49.856;19.030;2023-11-19T04:31:10;101760.41;;;-0.40;100.00
33949;BME280;20229;49.856;19.030;2023-11-19T04:36:24;101736.24;;;-0.43;100.00
33949;BME280;20229;49.856;19.030;2023-11-19T04:41:48;101737.16;;;-0.40;100.00
33949;BME280;20229;49.856;19.030;2023-11-19T04:47:08;101728.22;;;-0.40;100.00
33949;BME280;20229;49.856;19.030;2023-11-19T04:52:24;101712.14;;;-0.37;100.00
33949;BME280;20229;49.856;19.030;2023-11-19T04:57:38;101713.05;;;-0.35;100.00
33949;BME280;20229;49.856;19.030;2023-11-19T05:02:52;101708.61;;;-0.32;100.00
33949;BME280;20229;49.856;19.030;2023-11-19T05:08:06;101710.38;;;-0.29;100.00
33949;BME280;20229;49.856;19.030;2023-11-19T05:13:22;101702.36;;;-0.25;100.00
33949;BME280;20229;49.856;19.030;2023-11-19T05:18:36;101683.60;;;-0.15;100.00
33949;BME280;20229;49.856;19.030;2023-11-19T05:23:50;101682.73;;;-0.01;100.00
33949;BME280;20229;49.856;19.030;2023-11-19T05:29:04;101679.20;;;0.08;100.00
33949;BME280;20229;49.856;19.030;2023-11-19T05:34:18;101679.20;;;0.13;100.00
33949;BME280;20229;49.856;19.030;2023-11-19T05:39:33;101690.84;;;0.19;100.00
33949;BME280;20229;49.856;19.030;2023-11-19T05:44:47;101679.23;;;0.25;100.00
33949;BME280;20229;49.856;19.030;2023-11-19T05:50:04;101664.88;;;0.35;100.00
33949;BME280;20229;49.856;19.030;2023-11-19T05:55:21;101655.06;;;0.48;100.00
33949;BME280;20229;49.856;19.030;2023-11-19T06:00:38;101671.19;;;0.57;100.00
33949;BME280;20229;49.856;19.030;2023-11-19T06:05:54;101690.89;;;0.68;100.00
33949;BME280;20229;49.856;19.030;2023-11-19T06:11:11;101668.46;;;0.74;100.00
33949;BME280;20229;49.856;19.030;2023-11-19T06:16:34;101672.05;;;0.84;100.00
33949;BME280;20229;49.856;19.030;2023-11-19T06:21:50;101660.41;;;0.92;100.00
33949;BME280;20229;49.856;19.030;2023-11-19T06:27:04;101633.50;;;1.03;100.00
33949;BME280;20229;49.856;19.030;2023-11-19T06:32:18;101613.75;;;1.09;100.00
33949;BME280;20229;49.856;19.030;2023-11-19T06:37:32;101595.81;;;1.17;100.00
33949;BME280;20229;49.856;19.030;2023-11-19T06:42:47;101585.91;;;1.25;100.00
33949;BME280;20229;49.856;19.030;2023-11-19T06:48:01;101572.39;;;1.37;100.00
33949;BME280;20229;49.856;19.030;2023-11-19T06:53:19;101567.89;;;1.46;100.00
33949;BME280;20229;49.856;19.030;2023-11-19T06:58:36;101572.34;;;1.53;100.00
33949;BME280;20229;49.856;19.030;2023-11-19T07:03:50;101561.53;;;1.57;99.72
33949;BME280;20229;49.856;19.030;2023-11-19T07:09:05;101568.65;;;1.67;99.90
33949;BME280;20229;49.856;19.030;2023-11-19T07:14:27;101552.47;;;1.74;99.19
33949;BME280;20229;49.856;19.030;2023-11-19T07:19:43;101543.38;;;1.87;98.82
33949;BME280;20229;49.856;19.030;2023-11-19T07:24:57;101572.91;;;2.01;98.32
33949;BME280;20229;49.856;19.030;2023-11-19T07:30:12;101574.62;;;2.11;98.80
33949;BME280;20229;49.856;19.030;2023-11-19T07:35:26;101574.59;;;2.17;99.48
33949;BME280;20229;49.856;19.030;2023-11-19T07:40:40;101560.16;;;2.24;99.72
33949;BME280;20229;49.856;19.030;2023-11-19T07:45:54;101546.61;;;2.32;99.15
33949;BME280;20229;49.856;19.030;2023-11-19T07:51:08;101533.89;;;2.46;98.83
33949;BME280;20229;49.856;19.030;2023-11-19T07:56:25;101536.48;;;2.57;98.79
33949;BME280;20229;49.856;19.030;2023-11-19T08:01:39;101504.02;;;2.69;98.11
33949;BME280;20229;49.856;19.030;2023-11-19T08:06:53;101501.98;;;2.88;97.76
33949;BME280;20229;49.856;19.030;2023-11-19T08:12:07;101481.95;;;3.09;96.70
33949;BME280;20229;49.856;19.030;2023-11-19T08:17:22;101478.06;;;3.28;96.73
33949;BME280;20229;49.856;19.030;2023-11-19T08:22:38;101481.33;;;3.52;96.23
33949;BME280;20229;49.856;19.030;2023-11-19T08:27:52;101489.19;;;3.69;96.20
33949;BME280;20229;49.856;19.030;2023-11-19T08:33:06;101470.86;;;3.88;95.57
33949;BME280;20229;49.856;19.030;2023-11-19T08:38:21;101456.38;;;3.92;95.82
33949;BME280;20229;49.856;19.030;2023-11-19T08:43:35;101450.98;;;3.92;96.50
33949;BME280;20229;49.856;19.030;2023-11-19T08:48:49;101469.89;;;3.92;96.06
33949;BME280;20229;49.856;19.030;2023-11-19T08:54:04;101454.61;;;3.91;96.80
33949;BME280;20229;49.856;19.030;2023-11-19T08:59:20;101451.03;;;3.89;96.56
33949;BME280;20229;49.856;19.030;2023-11-19T09:04:34;101438.30;;;3.97;95.63
33949;BME280;20229;49.856;19.030;2023-11-19T09:09:49;101424.61;;;4.06;96.08
33949;BME280;20229;49.856;19.030;2023-11-19T09:15:04;101412.66;;;4.21;95.22
33949;BME280;20229;49.856;19.030;2023-11-19T09:20:17;101406.01;;;4.37;94.32
33949;BME280;20229;49.856;19.030;2023-11-19T09:25:32;101385.04;;;4.50;93.21
33949;BME280;20229;49.856;19.030;2023-11-19T09:30:45;101383.94;;;4.60;93.51
33949;BME280;20229;49.856;19.030;2023-11-19T09:35:59;101380.01;;;4.73;93.04
33949;BME280;20229;49.856;19.030;2023-11-19T09:41:13;101352.65;;;4.89;91.93
33949;BME280;20229;49.856;19.030;2023-11-19T09:46:28;101338.37;;;5.19;91.81
33949;BME280;20229;49.856;19.030;2023-11-19T09:51:43;101324.96;;;5.50;88.84
33949;BME280;20229;49.856;19.030;2023-11-19T09:56:58;101332.38;;;5.78;89.68
33949;BME280;20229;49.856;19.030;2023-11-19T10:02:17;101310.12;;;6.01;87.91
33949;BME280;20229;49.856;19.030;2023-11-19T10:08:18;101292.30;;;6.23;85.58
33949;BME280;20229;49.856;19.030;2023-11-19T10:13:44;101287.59;;;6.30;85.76
33949;BME280;20229;49.856;19.030;2023-11-19T10:19:02;101269.23;;;6.40;84.27
33949;BME280;20229;49.856;19.030;2023-11-19T10:24:16;101234.98;;;6.36;85.95
33949;BME280;20229;49.856;19.030;2023-11-19T10:29:37;101226.63;;;6.43;85.60
33949;BME280;20229;49.856;19.030;2023-11-19T10:40:20;101205.73;;;6.47;83.65
33949;BME280;20229;49.856;19.030;2023-11-19T10:45:36;101198.51;;;6.46;84.33
33949;BME280;20229;49.856;19.030;2023-11-19T10:50:54;101203.11;;;6.44;84.44
33949;BME280;20229;49.856;19.030;2023-11-19T10:56:11;101184.38;;;6.36;83.96
33949;BME280;20229;49.856;19.030;2023-11-19T11:01:37;101185.34;;;6.34;85.92
33949;BME280;20229;49.856;19.030;2023-11-19T11:06:55;101182.81;;;6.28;85.62
33949;BME280;20229;49.856;19.030;2023-11-19T11:12:12;101156.92;;;6.17;86.72
33949;BME280;20229;49.856;19.030;2023-11-19T11:17:28;101174.29;;;6.12;87.81
33949;BME280;20229;49.856;19.030;2023-11-19T11:22:55;101175.26;;;6.09;89.02
33949;BME280;20229;49.856;19.030;2023-11-19T11:34:19;101144.84;;;5.99;90.63
33949;BME280;20229;49.856;19.030;2023-11-19T11:39:29;101122.27;;;5.99;92.73
33949;BME280;20229;49.856;19.030;2023-11-19T11:50:11;101113.20;;;6.00;91.64
33949;BME280;20229;49.856;19.030;2023-11-19T12:00:47;101080.48;;;6.06;91.76
33949;BME280;20229;49.856;19.030;2023-11-19T12:06:04;101083.74;;;6.17;91.23
33949;BME280;20229;49.856;19.030;2023-11-19T12:11:18;101059.99;;;6.26;91.50
33949;BME280;20229;49.856;19.030;2023-11-19T12:16:34;101051.80;;;6.27;91.57
33949;BME280;20229;49.856;19.030;2023-11-19T12:21:52;101043.47;;;6.33;91.60
33949;BME280;20229;49.856;19.030;2023-11-19T12:27:08;101031.51;;;6.39;90.94
33949;BME280;20229;49.856;19.030;2023-11-19T12:32:22;101029.65;;;6.41;91.26
33949;BME280;20229;49.856;19.030;2023-11-19T12:37:47;101033.30;;;6.40;92.53
33949;BME280;20229;49.856;19.030;2023-11-19T12:43:01;101027.30;;;6.30;93.67
33949;BME280;20229;49.856;19.030;2023-11-19T12:48:15;101030.01;;;6.30;95.15
33949;BME280;20229;49.856;19.030;2023-11-19T12:53:46;101009.14;;;6.32;94.93
33949;BME280;20229;49.856;19.030;2023-11-19T12:58:53;101005.54;;;6.32;95.48
33949;BME280;20229;49.856;19.030;2023-11-19T13:04:18;101014.72;;;6.28;96.01
33949;BME280;20229;49.856;19.030;2023-11-19T13:09:33;101004.30;;;6.15;96.14
33949;BME280;20229;49.856;19.030;2023-11-19T13:14:50;101016.81;;;6.19;96.85
33949;BME280;20229;49.856;19.030;2023-11-19T13:20:06;101012.27;;;6.20;97.19
33949;BME280;20229;49.856;19.030;2023-11-19T13:25:20;101005.78;;;6.26;96.72
33949;BME280;20229;49.856;19.030;2023-11-19T13:30:34;100991.10;;;6.31;96.34
33949;BME280;20229;49.856;19.030;2023-11-19T13:35:51;100990.90;;;6.37;96.45
33949;BME280;20229;49.856;19.030;2023-11-19T13:41:06;100975.58;;;6.36;96.80
33949;BME280;20229;49.856;19.030;2023-11-19T13:46:20;100998.35;;;6.31;97.96
33949;BME280;20229;49.856;19.030;2023-11-19T13:51:34;100972.33;;;6.25;98.12
33949;BME280;20229;49.856;19.030;2023-11-19T13:56:48;100972.09;;;6.33;98.27
33949;BME280;20229;49.856;19.030;2023-11-19T14:02:02;100969.23;;;6.36;98.25
33949;BME280;20229;49.856;19.030;2023-11-19T14:07:16;100957.41;;;6.38;97.65
33949;BME280;20229;49.856;19.030;2023-11-19T14:12:31;100957.38;;;6.40;97.88
33949;BME280;20229;49.856;19.030;2023-11-19T14:17:46;100960.90;;;6.42;98.11
33949;BME280;20229;49.856;19.030;2023-11-19T14:23:00;100952.66;;;6.45;98.25
33949;BME280;20229;49.856;19.030;2023-11-19T14:28:14;100945.23;;;6.50;98.19
33949;BME280;20229;49.856;19.030;2023-11-19T14:33:27;100950.45;;;6.56;98.62
33949;BME280;20229;49.856;19.030;2023-11-19T14:38:43;100944.81;;;6.62;98.37
33949;BME280;20229;49.856;19.030;2023-11-19T14:43:57;100949.25;;;6.65;98.59
33949;BME280;20229;49.856;19.030;2023-11-19T14:49:11;100958.19;;;6.67;98.90
33949;BME280;20229;49.856;19.030;2023-11-19T14:54:27;100957.27;;;6.68;99.14
33949;BME280;20229;49.856;19.030;2023-11-19T14:59:41;100958.05;;;6.72;98.90
33949;BME280;20229;49.856;19.030;2023-11-19T15:04:55;100943.45;;;6.74;98.83
33949;BME280;20229;49.856;19.030;2023-11-19T15:10:09;100955.09;;;6.78;99.55
33949;BME280;20229;49.856;19.030;2023-11-19T15:15:25;100953.22;;;6.80;99.23
33949;BME280;20229;49.856;19.030;2023-11-19T15:20:39;100957.58;;;6.84;98.94
33949;BME280;20229;49.856;19.030;2023-11-19T15:25:53;100958.43;;;6.86;99.31
33949;BME280;20229;49.856;19.030;2023-11-19T15:31:09;100962.02;;;6.86;99.44
33949;BME280;20229;49.856;19.030;2023-11-19T15:36:23;100957.51;;;6.85;100.00
33949;BME280;20229;49.856;19.030;2023-11-19T15:41:37;100963.85;;;6.86;99.39
33949;BME280;20229;49.856;19.030;2023-11-19T15:46:52;100968.37;;;6.85;99.07
33949;BME280;20229;49.856;19.030;2023-11-19T15:52:07;100961.95;;;6.88;98.69
33949;BME280;20229;49.856;19.030;2023-11-19T15:57:22;100956.52;;;6.88;98.58
33949;BME280;20229;49.856;19.030;2023-11-19T16:02:36;100965.43;;;6.91;98.62
33949;BME280;20229;49.856;19.030;2023-11-19T16:07:50;100951.83;;;6.93;98.61
33949;BME280;20229;49.856;19.030;2023-11-19T16:13:04;100960.73;;;6.97;98.37
33949;BME280;20229;49.856;19.030;2023-11-19T16:18:22;100950.88;;;6.94;98.35
33949;BME280;20229;49.856;19.030;2023-11-19T16:23:35;100947.09;;;6.98;98.59
33949;BME280;20229;49.856;19.030;2023-11-19T16:28:49;100947.83;;;7.03;98.70
33949;BME280;20229;49.856;19.030;2023-11-19T16:34:03;100942.13;;;7.09;98.30
33949;BME280;20229;49.856;19.030;2023-11-19T16:39:21;100934.76;;;7.13;98.45
33949;BME280;20229;49.856;19.030;2023-11-19T16:44:36;100930.09;;;7.16;98.33
33949;BME280;20229;49.856;19.030;2023-11-19T16:49:51;100948.03;;;7.21;98.29
33949;BME280;20229;49.856;19.030;2023-11-19T16:55:05;100949.55;;;7.28;98.12
33949;BME280;20229;49.856;19.030;2023-11-19T17:00:24;100951.24;;;7.32;98.26
33949;BME280;20229;49.856;19.030;2023-11-19T17:05:39;100951.93;;;7.37;98.21
33949;BME280;20229;49.856;19.030;2023-11-19T17:10:54;100954.53;;;7.40;98.22
33949;BME280;20229;49.856;19.030;2023-11-19T17:16:09;100957.94;;;7.45;97.92
33949;BME280;20229;49.856;19.030;2023-11-19T17:21:24;100956.05;;;7.47;97.87
33949;BME280;20229;49.856;19.030;2023-11-19T17:26:38;100953.16;;;7.52;97.78
33949;BME280;20229;49.856;19.030;2023-11-19T17:31:52;100936.69;;;7.56;97.70
33949;BME280;20229;49.856;19.030;2023-11-19T17:37:06;100941.05;;;7.60;97.38
33949;BME280;20229;49.856;19.030;2023-11-19T17:42:20;100947.17;;;7.65;97.51
33949;BME280;20229;49.856;19.030;2023-11-19T17:47:36;100949.63;;;7.72;97.74
33949;BME280;20229;49.856;19.030;2023-11-19T17:52:51;100956.64;;;7.77;97.97
33949;BME280;20229;49.856;19.030;2023-11-19T17:58:05;100967.34;;;7.82;97.05
33949;BME280;20229;49.856;19.030;2023-11-19T18:03:20;100959.88;;;7.87;97.12
33949;BME280;20229;49.856;19.030;2023-11-19T18:08:35;100965.20;;;7.90;97.46
33949;BME280;20229;49.856;19.030;2023-11-19T18:13:49;100972.38;;;7.91;97.75
33949;BME280;20229;49.856;19.030;2023-11-19T18:19:03;100972.13;;;7.97;97.80
33949;BME280;20229;49.856;19.030;2023-11-19T18:24:18;100962.14;;;7.98;97.26
33949;BME280;20229;49.856;19.030;2023-11-19T18:29:32;100952.02;;;8.01;97.09
33949;BME280;20229;49.856;19.030;2023-11-19T18:34:51;100954.74;;;8.01;96.82
33949;BME280;20229;49.856;19.030;2023-11-19T18:40:06;100961.02;;;8.03;96.73
33949;BME280;20229;49.856;19.030;2023-11-19T18:45:24;100948.17;;;8.07;96.88
33949;BME280;20229;49.856;19.030;2023-11-19T18:50:39;100937.18;;;8.10;96.76
33949;BME280;20229;49.856;19.030;2023-11-19T18:55:54;100943.48;;;8.10;96.69
33949;BME280;20229;49.856;19.030;2023-11-19T19:01:08;100931.85;;;8.07;96.59
33949;BME280;20229;49.856;19.030;2023-11-19T19:06:22;100939.02;;;8.09;96.33
33949;BME280;20229;49.856;19.030;2023-11-19T19:11:36;100929.81;;;8.12;96.09
33949;BME280;20229;49.856;19.030;2023-11-19T19:16:50;100926.22;;;8.11;95.63
33949;BME280;20229;49.856;19.030;2023-11-19T19:22:04;100921.74;;;8.10;95.75
33949;BME280;20229;49.856;19.030;2023-11-19T19:27:18;100932.66;;;8.09;95.38
33949;BME280;20229;49.856;19.030;2023-11-19T19:32:32;100940.90;;;8.07;94.79
33949;BME280;20229;49.856;19.030;2023-11-19T19:37:48;100946.47;;;8.04;94.37
33949;BME280;20229;49.856;19.030;2023-11-19T19:43:02;100936.55;;;8.03;94.83
33949;BME280;20229;49.856;19.030;2023-11-19T19:48:17;100940.27;;;8.01;94.76
33949;BME280;20229;49.856;19.030;2023-11-19T19:53:32;100932.33;;;7.96;94.83
33949;BME280;20229;49.856;19.030;2023-11-19T19:58:46;100923.45;;;7.91;95.16
33949;BME280;20229;49.856;19.030;2023-11-19T20:04:00;100935.36;;;7.88;95.19
33949;BME280;20229;49.856;19.030;2023-11-19T20:09:16;100940.92;;;7.85;95.36
33949;BME280;20229;49.856;19.030;2023-11-19T20:14:30;100942.80;;;7.83;95.23
33949;BME280;20229;49.856;19.030;2023-11-19T20:19:45;100929.29;;;7.82;95.27
33949;BME280;20229;49.856;19.030;2023-11-19T20:25:00;100933.77;;;7.83;95.12
33949;BME280;20229;49.856;19.030;2023-11-19T20:30:14;100942.68;;;7.86;95.08
33949;BME280;20229;49.856;19.030;2023-11-19T20:35:28;100938.97;;;7.89;95.09
33949;BME280;20229;49.856;19.030;2023-11-19T20:40:42;100943.31;;;7.93;95.26
33949;BME280;20229;49.856;19.030;2023-11-19T20:45:56;100944.16;;;7.95;94.93
33949;BME280;20229;49.856;19.030;2023-11-19T20:51:10;100949.63;;;7.94;94.97
33949;BME280;20229;49.856;19.030;2023-11-19T20:56:24;100946.79;;;7.97;95.41
33949;BME280;20229;49.856;19.030;2023-11-19T21:01:39;100941.23;;;8.00;94.80
33949;BME280;20229;49.856;19.030;2023-11-19T21:06:53;100944.83;;;8.00;94.52
33949;BME280;20229;49.856;19.030;2023-11-19T21:12:07;100941.28;;;7.98;94.76
33949;BME280;20229;49.856;19.030;2023-11-19T21:17:23;100948.42;;;8.01;94.78
33949;BME280;20229;49.856;19.030;2023-11-19T21:22:37;100946.59;;;8.01;95.01
33949;BME280;20229;49.856;19.030;2023-11-19T21:27:51;100941.98;;;8.03;94.57
33949;BME280;20229;49.856;19.030;2023-11-19T21:33:06;100948.22;;;8.05;94.62
33949;BME280;20229;49.856;19.030;2023-11-19T21:38:26;100948.22;;;8.05;94.46
33949;BME280;20229;49.856;19.030;2023-11-19T21:43:41;100942.94;;;8.02;94.59
33949;BME280;20229;49.856;19.030;2023-11-19T21:48:55;100950.13;;;8.03;94.61
33949;BME280;20229;49.856;19.030;2023-11-19T21:54:09;100952.78;;;8.05;94.78
33949;BME280;20229;49.856;19.030;2023-11-19T21:59:23;100946.34;;;8.07;94.55
33949;BME280;20229;49.856;19.030;2023-11-19T22:04:43;100936.34;;;8.08;94.12
33949;BME280;20229;49.856;19.030;2023-11-19T22:09:57;100931.66;;;8.11;94.27
33949;BME280;20229;49.856;19.030;2023-11-19T22:15:11;100938.86;;;8.12;94.31
33949;BME280;20229;49.856;19.030;2023-11-19T22:20:26;100945.24;;;8.11;93.83
33949;BME280;20229;49.856;19.030;2023-11-19T22:25:41;100953.41;;;8.11;94.02
33949;BME280;20229;49.856;19.030;2023-11-19T22:30:56;100953.16;;;8.18;93.77
33949;BME280;20229;49.856;19.030;2023-11-19T22:36:10;100949.35;;;8.22;93.74
33949;BME280;20229;49.856;19.030;2023-11-19T22:41:24;100944.80;;;8.22;93.48
33949;BME280;20229;49.856;19.030;2023-11-19T22:46:38;100927.47;;;8.25;93.68
33949;BME280;20229;49.856;19.030;2023-11-19T22:51:52;100936.42;;;8.27;93.86
33949;BME280;20229;49.856;19.030;2023-11-19T22:57:06;100926.51;;;8.26;93.62
33949;BME280;20229;49.856;19.030;2023-11-19T23:02:21;100921.77;;;8.31;93.79
33949;BME280;20229;49.856;19.030;2023-11-19T23:07:37;100916.03;;;8.37;94.10
33949;BME280;20229;49.856;19.030;2023-11-19T23:12:51;100932.13;;;8.43;93.79
33949;BME280;20229;49.856;19.030;2023-11-19T23:18:05;100937.31;;;8.49;94.20
33949;BME280;20229;49.856;19.030;2023-11-19T23:23:19;100933.50;;;8.53;94.41
33949;BME280;20229;49.856;19.030;2023-11-19T23:28:33;100935.21;;;8.56;94.69
33949;BME280;20229;49.856;19.030;2023-11-19T23:33:49;100939.60;;;8.58;94.50
33949;BME280;20229;49.856;19.030;2023-11-19T23:39:05;100935.95;;;8.59;94.56
33949;BME280;20229;49.856;19.030;2023-11-19T23:44:20;100938.55;;;8.63;94.40
33949;BME280;20229;49.856;19.030;2023-11-19T23:49:34;100935.88;;;8.61;94.97
33949;BME280;20229;49.856;19.030;2023-11-19T23:54:48;100935.88;;;8.61;95.01
